首页
METAR-TAF:

METAR-TAF

机场 :

Fort Riley, 堪薩斯州, 美国

纬度: 39-06N, 经度: 096-46W, 海拔: 325米

当前天气观测

该预报发布于12分钟前的09:56 UTC
静风
温度 10°C
湿度 93%
气压 1010 hPa
能見度: 4.8公里
少量云层低于100英尺
轻雾

METAR: KFRI 150956Z 00000KT 3SM BR FEW000 10/09 A2983 RMK AO2A VIS E 1/4 FG FEW000 SLP095 T01030094 $

时间: 05:08 (10:08 UTC)


TAF: 丢失

超过4000个机场的气象观测和天气预报(METAR&TAF报告)。

可查询的气象台以黄色和红色小点在地图上表示。

将鼠标移到小点上方,可查看气象台名称。

然后点击查看天气观测和预报。

如需切换地图:点击带黑十字的绿色按钮放大地图;点击带横线的绿色按钮缩小地图;或者点击绿色箭头查看邻近地区的地图。


METAR-TAF: